createdAt,value
2022-09-28T00:02:03.787Z,80.50
2022-09-28T00:05:09.644Z,80.16
2022-09-28T00:08:15.248Z,81.16
2022-09-28T00:11:23.860Z,81.16
2022-09-28T00:14:29.389Z,80.23
2022-09-28T00:17:35.167Z,80.12
2022-09-28T00:20:40.399Z,79.84
2022-09-28T00:23:48.121Z,79.43
2022-09-28T00:26:59.624Z,79.91
2022-09-28T00:30:05.319Z,80.06
2022-09-28T00:33:11.438Z,79.68
2022-09-28T00:36:17.200Z,79.80
2022-09-28T00:39:22.669Z,80.12
2022-09-28T00:42:33.305Z,80.11
2022-09-28T00:45:40.163Z,79.37
2022-09-28T00:48:48.885Z,78.97
2022-09-28T00:51:54.882Z,78.79
2022-09-28T00:55:01.007Z,78.55
2022-09-28T00:58:03.114Z,78.63
2022-09-28T01:00:57.179Z,78.62
2022-09-28T01:04:03.109Z,78.33
2022-09-28T01:07:10.791Z,77.78
2022-09-28T01:10:18.214Z,78.07
2022-09-28T01:13:25.281Z,78.71
2022-09-28T01:17:00.091Z,79.21
2022-09-28T01:20:40.344Z,79.06
2022-09-28T01:24:09.712Z,78.53
2022-09-28T01:27:43.802Z,78.33
2022-09-28T01:30:56.142Z,79.24
2022-09-28T01:34:15.676Z,78.86
2022-09-28T01:37:18.730Z,79.24
2022-09-28T01:40:10.893Z,78.94
2022-09-28T01:43:37.341Z,78.65
2022-09-28T01:46:54.165Z,79.05
2022-09-28T01:50:09.039Z,79.42
2022-09-28T01:53:37.740Z,79.25
2022-09-28T01:57:09.657Z,79.44
2022-09-28T02:00:22.436Z,78.67
2022-09-28T02:03:34.436Z,78.41
2022-09-28T02:06:47.652Z,78.27
2022-09-28T02:10:05.323Z,78.40
2022-09-28T02:13:28.058Z,78.18
2022-09-28T02:16:52.977Z,77.53
2022-09-28T02:20:01.717Z,77.94
2022-09-28T02:23:10.265Z,77.97
2022-09-28T02:26:18.454Z,77.68
2022-09-28T02:29:23.934Z,78.23
2022-09-28T02:32:30.002Z,78.43
2022-09-28T02:35:36.336Z,79.16
2022-09-28T02:38:41.764Z,78.35
2022-09-28T02:42:12.960Z,77.97
2022-09-28T02:45:51.900Z,77.18
2022-09-28T02:49:22.505Z,75.78
2022-09-28T02:53:01.396Z,75.16
2022-09-28T02:56:26.827Z,75.04
2022-09-28T02:59:57.969Z,75.15
2022-09-28T03:03:20.943Z,75.35
2022-09-28T03:06:30.182Z,75.19
2022-09-28T03:09:59.062Z,74.67
2022-09-28T03:13:04.946Z,74.57
2022-09-28T03:16:25.929Z,75.35
2022-09-28T03:19:31.714Z,75.91
2022-09-28T03:22:37.153Z,75.55
2022-09-28T03:25:42.571Z,75.40
2022-09-28T03:28:47.973Z,75.63
2022-09-28T03:31:55.914Z,75.96
2022-09-28T03:35:02.867Z,76.23
2022-09-28T03:38:12.943Z,77.24
2022-09-28T03:41:20.950Z,77.70
2022-09-28T03:44:27.750Z,78.15
2022-09-28T03:47:28.364Z,78.14
2022-09-28T03:50:18.223Z,78.87
2022-09-28T03:53:12.003Z,78.62
2022-09-28T03:55:58.516Z,78.42
2022-09-28T03:58:51.558Z,78.37
2022-09-28T04:01:45.135Z,78.01
2022-09-28T04:04:49.971Z,77.66
2022-09-28T04:07:55.899Z,77.83
2022-09-28T04:11:02.827Z,78.41
2022-09-28T04:14:07.824Z,78.23
2022-09-28T04:17:14.295Z,77.98
2022-09-28T04:20:14.383Z,78.08
2022-09-28T04:23:33.852Z,77.77
2022-09-28T04:26:41.058Z,77.92
2022-09-28T04:29:48.245Z,77.95
2022-09-28T04:32:54.922Z,79.11
2022-09-28T04:36:00.795Z,79.35
2022-09-28T04:39:07.623Z,78.99
2022-09-28T04:42:08.523Z,78.76
2022-09-28T04:45:15.410Z,78.67
2022-09-28T04:48:21.988Z,78.67
2022-09-28T04:51:30.992Z,78.92
2022-09-28T04:54:36.885Z,78.56
2022-09-28T04:57:42.991Z,78.39
2022-09-28T05:00:49.612Z,78.85
2022-09-28T05:04:04.483Z,78.53
2022-09-28T05:07:28.100Z,79.26
2022-09-28T05:10:37.064Z,78.66
2022-09-28T05:13:46.850Z,78.07
2022-09-28T05:16:54.036Z,77.36
2022-09-28T05:20:00.963Z,77.22
2022-09-28T05:23:06.731Z,77.07
2022-09-28T05:26:14.975Z,76.83
2022-09-28T05:29:19.791Z,76.08
2022-09-28T05:32:43.004Z,76.31
2022-09-28T05:35:51.036Z,75.96
2022-09-28T05:38:56.314Z,76.39
2022-09-28T05:42:05.152Z,76.37
2022-09-28T05:45:14.820Z,76.35
2022-09-28T05:48:26.696Z,75.93
2022-09-28T05:51:34.213Z,75.72
2022-09-28T05:54:41.702Z,75.25
2022-09-28T05:57:47.632Z,75.87
2022-09-28T06:00:53.507Z,76.61
2022-09-28T06:03:59.795Z,75.87
2022-09-28T06:07:08.143Z,75.69
2022-09-28T06:10:14.799Z,75.44
2022-09-28T06:13:21.620Z,74.58
2022-09-28T06:16:31.448Z,74.32
2022-09-28T06:19:38.310Z,74.12
2022-09-28T06:23:03.176Z,73.96
2022-09-28T06:26:09.283Z,72.34
2022-09-28T06:29:19.455Z,71.85
2022-09-28T06:32:24.803Z,71.52
2022-09-28T06:35:32.467Z,69.86
2022-09-28T06:38:38.301Z,69.80
2022-09-28T06:41:44.581Z,69.59
2022-09-28T06:44:53.356Z,69.72
2022-09-28T06:48:05.566Z,68.86
2022-09-28T06:51:13.489Z,67.87
2022-09-28T06:54:20.654Z,68.07
2022-09-28T06:57:32.530Z,67.18
2022-09-28T07:00:39.226Z,66.07
2022-09-28T07:03:47.261Z,65.69
2022-09-28T07:07:02.834Z,65.91
2022-09-28T07:10:24.387Z,66.16
2022-09-28T07:13:54.194Z,66.08
2022-09-28T07:17:08.081Z,66.50
2022-09-28T07:19:57.579Z,66.72
2022-09-28T07:23:18.850Z,66.73
2022-09-28T07:26:36.196Z,67.03
2022-09-28T07:29:44.553Z,67.32
2022-09-28T07:32:39.167Z,67.95
2022-09-28T07:35:42.592Z,68.28
2022-09-28T07:38:47.736Z,68.63
2022-09-28T07:41:56.739Z,68.28
2022-09-28T07:45:04.032Z,67.64
2022-09-28T07:48:12.956Z,67.69
2022-09-28T07:51:19.033Z,67.24
2022-09-28T07:54:06.762Z,66.98
2022-09-28T07:57:04.010Z,67.12
2022-09-28T08:00:15.571Z,67.70
2022-09-28T08:03:20.490Z,67.65
2022-09-28T08:06:25.230Z,67.81
2022-09-28T08:09:30.617Z,68.43
2022-09-28T08:12:54.450Z,68.20
2022-09-28T08:16:11.984Z,67.88
2022-09-28T08:19:18.248Z,68.28
2022-09-28T08:22:24.390Z,68.37
2022-09-28T08:25:31.583Z,68.44
2022-09-28T08:28:38.163Z,68.65
2022-09-28T08:31:45.214Z,68.26
2022-09-28T08:34:57.217Z,67.84
2022-09-28T08:38:10.431Z,68.40
2022-09-28T08:41:57.198Z,68.10
2022-09-28T08:45:07.596Z,68.20
2022-09-28T08:49:12.988Z,68.15
2022-09-28T08:52:21.886Z,67.62
2022-09-28T08:55:53.150Z,67.29
2022-09-28T08:58:59.396Z,66.70
2022-09-28T09:02:12.398Z,66.35
2022-09-28T09:05:23.519Z,65.40
2022-09-28T09:09:12.273Z,64.87
2022-09-28T09:12:27.017Z,64.05
2022-09-28T09:16:06.151Z,64.01
2022-09-28T09:19:50.047Z,63.63
2022-09-28T09:23:13.710Z,63.32
2022-09-28T09:26:30.035Z,63.38
2022-09-28T09:30:03.112Z,63.14
2022-09-28T09:33:46.448Z,62.71
2022-09-28T09:37:35.044Z,62.25
2022-09-28T09:41:07.328Z,61.20
2022-09-28T09:44:55.712Z,61.04
2022-09-28T09:48:33.424Z,61.21
2022-09-28T09:51:57.319Z,61.26
2022-09-28T09:55:23.352Z,61.26
2022-09-28T09:58:57.505Z,60.87
2022-09-28T10:02:07.744Z,61.67
2022-09-28T10:05:36.123Z,62.26
2022-09-28T10:08:46.586Z,62.65
2022-09-28T10:12:01.320Z,62.41
2022-09-28T10:15:09.500Z,62.28
2022-09-28T10:18:19.432Z,62.12
2022-09-28T10:21:45.308Z,61.70
2022-09-28T10:25:03.152Z,60.64
2022-09-28T10:28:13.786Z,59.74
2022-09-28T10:31:51.456Z,59.84
2022-09-28T10:34:58.995Z,59.91
2022-09-28T10:38:18.085Z,60.60
2022-09-28T10:41:27.487Z,61.52
2022-09-28T10:44:36.510Z,62.33
2022-09-28T10:47:45.586Z,62.06
2022-09-28T10:50:51.881Z,62.28
2022-09-28T10:54:15.704Z,62.11
2022-09-28T10:57:27.528Z,62.87
2022-09-28T11:00:56.032Z,62.90
2022-09-28T11:04:19.863Z,63.17
2022-09-28T11:07:39.234Z,63.27
2022-09-28T11:10:45.796Z,63.28
2022-09-28T11:14:16.603Z,63.03
2022-09-28T11:17:45.408Z,63.01
2022-09-28T11:20:51.617Z,63.20
2022-09-28T11:23:57.006Z,62.57
2022-09-28T11:27:09.586Z,62.42
2022-09-28T11:30:15.751Z,61.33
2022-09-28T11:33:42.598Z,60.69
2022-09-28T11:37:10.218Z,59.99
2022-09-28T11:40:53.077Z,59.57
2022-09-28T11:44:52.354Z,59.09
2022-09-28T11:48:14.916Z,58.71
2022-09-28T11:51:34.889Z,59.44
2022-09-28T11:54:53.946Z,58.86
2022-09-28T11:58:05.434Z,58.97
2022-09-28T12:01:53.054Z,59.27
2022-09-28T12:05:34.699Z,59.34
2022-09-28T12:08:53.341Z,59.24
2022-09-28T12:12:21.094Z,59.63
2022-09-28T12:15:59.223Z,58.86
2022-09-28T12:19:03.131Z,58.69
2022-09-28T12:22:16.157Z,58.68
2022-09-28T12:25:29.500Z,58.67
2022-09-28T12:28:48.742Z,58.71
2022-09-28T12:32:15.851Z,58.63
2022-09-28T12:35:32.325Z,58.70
2022-09-28T12:39:18.903Z,58.51
2022-09-28T12:42:25.719Z,58.65
2022-09-28T12:46:06.780Z,59.06
2022-09-28T12:49:40.983Z,58.65
2022-09-28T12:52:13.069Z,58.62
2022-09-28T12:55:36.411Z,58.82
2022-09-28T12:59:03.403Z,58.71
2022-09-28T13:02:33.136Z,58.46
2022-09-28T13:05:57.405Z,58.33
2022-09-28T13:09:22.470Z,58.00
2022-09-28T13:13:01.371Z,58.13
2022-09-28T13:16:30.890Z,58.70
2022-09-28T13:19:55.094Z,59.15
2022-09-28T13:23:30.790Z,59.07
2022-09-28T13:26:51.326Z,59.04
2022-09-28T13:30:00.637Z,58.85
2022-09-28T13:33:10.148Z,59.05
2022-09-28T13:36:15.805Z,58.83
2022-09-28T13:39:44.009Z,58.38
2022-09-28T13:43:04.072Z,58.84
2022-09-28T13:46:10.266Z,59.30
2022-09-28T13:49:39.306Z,59.53
2022-09-28T13:53:08.256Z,59.58
2022-09-28T13:56:39.933Z,60.04
2022-09-28T13:59:45.683Z,60.97
2022-09-28T14:03:05.980Z,61.96
2022-09-28T14:06:42.809Z,62.66
2022-09-28T14:10:02.365Z,62.70
2022-09-28T14:13:08.707Z,62.75
2022-09-28T14:16:38.373Z,62.72
2022-09-28T14:19:47.475Z,63.21
2022-09-28T14:23:25.327Z,63.26
2022-09-28T14:26:48.545Z,63.16
2022-09-28T14:29:53.486Z,63.70
2022-09-28T14:33:11.767Z,64.01
2022-09-28T14:36:21.645Z,63.89
2022-09-28T14:40:00.309Z,63.84
2022-09-28T14:43:55.792Z,64.07
2022-09-28T14:47:01.639Z,64.02
2022-09-28T14:50:15.883Z,64.64
2022-09-28T14:53:28.817Z,64.86
2022-09-28T14:56:34.531Z,65.13
2022-09-28T14:59:44.257Z,65.31
2022-09-28T15:02:50.678Z,65.96
2022-09-28T15:06:02.454Z,66.73
2022-09-28T15:09:08.695Z,67.28
2022-09-28T15:12:35.304Z,67.49
2022-09-28T15:15:56.922Z,67.68
2022-09-28T15:19:16.619Z,67.96
2022-09-28T15:22:31.494Z,68.03
2022-09-28T15:25:40.941Z,67.83
2022-09-28T15:28:50.494Z,68.47
2022-09-28T15:31:56.435Z,68.32
2022-09-28T15:35:03.448Z,68.86
2022-09-28T15:38:10.549Z,69.07
2022-09-28T15:41:20.802Z,69.19
2022-09-28T15:44:30.532Z,69.82
2022-09-28T15:47:34.310Z,69.89
2022-09-28T15:50:40.589Z,70.40
2022-09-28T15:53:34.175Z,70.51
2022-09-28T15:56:40.564Z,70.85
2022-09-28T15:59:47.410Z,70.85
2022-09-28T16:02:52.976Z,70.77
2022-09-28T16:06:02.564Z,70.95
2022-09-28T16:09:07.795Z,70.60
2022-09-28T16:12:13.439Z,71.54
2022-09-28T16:15:42.444Z,72.09
2022-09-28T16:18:50.776Z,72.23
2022-09-28T16:22:03.013Z,72.30
2022-09-28T16:25:12.198Z,72.54
2022-09-28T16:28:17.231Z,73.00
2022-09-28T16:31:43.730Z,73.47
2022-09-28T16:34:48.680Z,73.50
2022-09-28T16:37:55.840Z,73.25
2022-09-28T16:41:07.261Z,73.17
2022-09-28T16:44:13.828Z,72.85
2022-09-28T16:47:21.471Z,72.69
2022-09-28T16:50:31.508Z,72.69
2022-09-28T16:53:56.016Z,73.38
2022-09-28T16:57:02.320Z,73.04
2022-09-28T17:00:08.180Z,73.19
2022-09-28T17:03:13.847Z,72.68
2022-09-28T17:06:19.846Z,72.93
2022-09-28T17:09:29.059Z,72.83
2022-09-28T17:12:36.728Z,72.50
2022-09-28T17:15:42.173Z,73.02
2022-09-28T17:18:47.424Z,73.42
2022-09-28T17:21:53.389Z,73.47
2022-09-28T17:24:59.223Z,73.72
2022-09-28T17:28:05.014Z,74.05
2022-09-28T17:31:09.964Z,73.74
2022-09-28T17:34:17.332Z,74.09
2022-09-28T17:37:27.788Z,74.14
2022-09-28T17:40:38.456Z,74.43
2022-09-28T17:43:44.263Z,74.37
2022-09-28T17:46:53.385Z,74.34
2022-09-28T17:50:00.556Z,74.96
2022-09-28T17:53:09.328Z,75.07
2022-09-28T17:56:13.991Z,75.41
2022-09-28T17:59:22.458Z,75.51
2022-09-28T18:02:27.594Z,75.61
2022-09-28T18:05:34.406Z,75.92
2022-09-28T18:08:40.022Z,76.00
2022-09-28T18:11:48.235Z,75.82
2022-09-28T18:14:54.870Z,75.48
2022-09-28T18:18:01.539Z,75.31
2022-09-28T18:21:07.822Z,75.66
2022-09-28T18:24:15.357Z,75.48
2022-09-28T18:27:21.035Z,76.07
2022-09-28T18:30:26.960Z,75.75
2022-09-28T18:33:51.033Z,75.92
2022-09-28T18:36:56.021Z,76.22
2022-09-28T18:40:02.084Z,76.36
2022-09-28T18:43:07.025Z,76.14
2022-09-28T18:46:12.673Z,76.37
2022-09-28T18:49:20.170Z,75.90
2022-09-28T18:52:26.545Z,76.47
2022-09-28T18:55:32.197Z,76.79
2022-09-28T18:58:37.017Z,76.96
2022-09-28T19:01:43.451Z,77.06
2022-09-28T19:04:52.620Z,77.17
2022-09-28T19:07:57.705Z,77.00
2022-09-28T19:11:04.423Z,77.39
2022-09-28T19:14:10.297Z,77.62
2022-09-28T19:17:17.003Z,77.39
2022-09-28T19:20:24.019Z,77.52
2022-09-28T19:23:29.828Z,77.60
2022-09-28T19:26:39.395Z,78.03
2022-09-28T19:29:45.038Z,77.92
2022-09-28T19:32:50.720Z,77.70
2022-09-28T19:35:56.517Z,77.20
2022-09-28T19:39:02.608Z,77.19
2022-09-28T19:42:08.495Z,77.19
2022-09-28T19:45:15.679Z,76.85
2022-09-28T19:48:21.268Z,76.78
2022-09-28T19:51:27.065Z,77.02
2022-09-28T19:54:37.041Z,76.97
2022-09-28T19:57:44.649Z,77.10
2022-09-28T20:00:49.852Z,76.88
2022-09-28T20:03:56.490Z,77.22
2022-09-28T20:06:56.574Z,77.11
2022-09-28T20:09:42.548Z,76.95
2022-09-28T20:12:35.328Z,76.53
2022-09-28T20:15:23.976Z,76.27
2022-09-28T20:18:17.885Z,76.07
2022-09-28T20:21:26.432Z,76.28
2022-09-28T20:24:30.196Z,76.30
2022-09-28T20:27:35.324Z,76.24
2022-09-28T20:30:41.192Z,76.21
2022-09-28T20:33:50.093Z,75.91
2022-09-28T20:36:55.919Z,75.97
2022-09-28T20:40:02.454Z,75.62
2022-09-28T20:43:07.941Z,75.56
2022-09-28T20:46:13.658Z,75.67
2022-09-28T20:49:19.864Z,75.62
2022-09-28T20:52:25.075Z,75.33
2022-09-28T20:55:30.815Z,75.22
2022-09-28T20:58:36.372Z,74.75
2022-09-28T21:01:42.677Z,74.36
2022-09-28T21:04:48.417Z,73.97
2022-09-28T21:07:54.904Z,74.07
2022-09-28T21:11:00.743Z,74.33
2022-09-28T21:14:16.193Z,74.43
2022-09-28T21:17:22.179Z,74.10
2022-09-28T21:20:28.665Z,73.66
2022-09-28T21:23:34.457Z,72.90
2022-09-28T21:26:43.402Z,73.11
2022-09-28T21:29:49.059Z,73.05
2022-09-28T21:32:56.426Z,73.08
2022-09-28T21:36:03.409Z,73.13
2022-09-28T21:39:10.618Z,73.16
2022-09-28T21:42:17.046Z,73.16
2022-09-28T21:45:24.129Z,72.96
2022-09-28T21:48:29.808Z,72.70
2022-09-28T21:51:34.971Z,73.29
2022-09-28T21:54:42.571Z,72.65
2022-09-28T21:57:47.918Z,72.59
2022-09-28T22:00:58.262Z,72.66
2022-09-28T22:04:00.734Z,72.91
2022-09-28T22:07:06.988Z,73.17
2022-09-28T22:10:12.233Z,73.23
2022-09-28T22:13:17.141Z,73.30
2022-09-28T22:16:24.630Z,73.24
2022-09-28T22:19:30.895Z,73.78
2022-09-28T22:22:37.237Z,74.13
2022-09-28T22:25:43.587Z,74.10
2022-09-28T22:28:48.812Z,74.49
2022-09-28T22:31:55.530Z,74.09
2022-09-28T22:35:02.578Z,74.38
2022-09-28T22:38:08.489Z,74.47
2022-09-28T22:41:14.038Z,74.09
2022-09-28T22:44:19.989Z,74.46
2022-09-28T22:47:26.881Z,74.56
2022-09-28T22:50:33.600Z,74.54
2022-09-28T22:53:40.125Z,74.63
2022-09-28T22:56:46.189Z,74.75
2022-09-28T22:59:51.764Z,74.54
2022-09-28T23:02:58.599Z,74.01
2022-09-28T23:06:10.143Z,73.87
2022-09-28T23:09:15.572Z,73.91
2022-09-28T23:12:21.443Z,73.67
2022-09-28T23:15:27.911Z,74.10
2022-09-28T23:18:32.978Z,74.10
2022-09-28T23:21:41.110Z,73.94
2022-09-28T23:24:47.853Z,73.95
2022-09-28T23:27:54.093Z,74.08
2022-09-28T23:30:53.998Z,74.06
2022-09-28T23:33:59.945Z,73.73
2022-09-28T23:37:08.780Z,73.61
2022-09-28T23:40:14.957Z,73.54
2022-09-28T23:43:20.602Z,73.10
2022-09-28T23:46:26.145Z,72.96
2022-09-28T23:49:31.171Z,73.37
2022-09-28T23:52:36.518Z,72.85
2022-09-28T23:55:41.686Z,73.12
2022-09-28T23:58:47.394Z,73.27
